My Profile
  1. Member Settings
  2. My Devices
  3. Sign Out
        More Settings
      Elev 73 ft, 57.562 °N 4.662 °W

      Muir of Ord, GB

      Summary

      Temperature (°F)MaxAverageMin
      Max Temperature6652.5344
      Avg Temperature59.2148.2340.42
      Min Temperature5543.4133
      Precipitation (in)MaxAverageMinSum
      Precipitation0000
      Dew Point (°F)MaxAverageMin
      Dew Point57.1745.1435.29
      Wind (mph)MaxAverageMin
      Wind---
      Gust Wind---
      Sea Level Pressure (in)MaxAverageMin
      Sea Level Pressure---

      Daily Observations

      DateTemp High/LowDew Pt High/LowHumidityWindMax WindWind GustPressurePrecip.Condition
      10/1/2021 51 °F / 42 °F 46 °F / 40 °F 88 % - - - 0 in
      10/2/2021 51 °F / 39 °F 45 °F / 38 °F 88 % - - - 0 in
      10/3/2021 51 °F / 37 °F 45 °F / 35 °F 85 % - - - 0 in
      10/4/2021 54 °F / 43 °F 45 °F / 42 °F 82 % - - - 0 in
      10/5/2021 51 °F / 41 °F 46 °F / 40 °F 88 % - - - 0 in
      10/6/2021 52 °F / 43 °F 48 °F / 41 °F 89 % - - - 0 in
      10/7/2021 65 °F / 47 °F 59 °F / 47 °F 91 % - - - 0 in
      10/8/2021 66 °F / 55 °F 61 °F / 55 °F 96 % - - - 0 in
      10/9/2021 61 °F / 47 °F 57 °F / 46 °F 91 % - - - 0 in
      10/10/2021 52 °F / 46 °F 47 °F / 40 °F 82 % - - - 0 in
      10/11/2021 54 °F / 47 °F 51 °F / 42 °F 85 % - - - 0 in
      10/12/2021 54 °F / 45 °F 53 °F / 45 °F 97 % - - - 0 in
      10/13/2021 55 °F / 54 °F 52 °F / 51 °F 91 % - - - 0 in
      10/14/2021 46 °F / 42 °F 43 °F / 38 °F 87 % - - - 0 in
      10/15/2021 46 °F / 36 °F 38 °F / 34 °F 80 % - - - 0 in
      10/16/2021 49 °F / 40 °F 42 °F / 33 °F 80 % - - - 0 in
      10/17/2021 50 °F / 42 °F 50 °F / 41 °F 98 % - - - 0 in
      10/18/2021 58 °F / 49 °F 56 °F / 49 °F 95 % - - - 0 in
      10/19/2021 59 °F / 52 °F 57 °F / 50 °F 92 % - - - 0 in
      10/20/2021 55 °F / 33 °F 51 °F / 31 °F 85 % - - - 0 in
      10/21/2021 44 °F / 35 °F 42 °F / 32 °F 89 % - - - 0 in
      10/22/2021 45 °F / 37 °F 41 °F / 35 °F 91 % - - - 0 in
      10/23/2021 54 °F / 42 °F 48 °F / 40 °F 85 % - - - 0 in
      10/24/2021 56 °F / 47 °F 50 °F / 45 °F 89 % - - - 0 in
      10/25/2021 48 °F / 42 °F 46 °F / 39 °F 88 % - - - 0 in
      10/26/2021 58 °F / 43 °F 55 °F / 41 °F 92 % - - - 0 in
      10/27/2021 56 °F / 49 °F 50 °F / 48 °F 87 % - - - 0 in
      10/28/2021 52 °F / 44 °F 49 °F / 43 °F 93 % - - - 0 in
      10/29/2021 47 °F / 43 °F 47 °F / 42 °F 98 % - - - 0 in
      10/30/2021 49 °F / 38 °F 47 °F / 37 °F 94 % - - - 0 in
      10/31/2021 47 °F / 39 °F 47 °F / 38 °F 98 % - - - 0 in
      essentialaccessibility.com
      We recognize our responsibility to use data and technology for good. We may use or share your data with our data vendors. Take control of your data.
      Glossary